createdAt,value
2023-01-29T00:01:57.643Z,71.49
2023-01-29T00:04:24.521Z,70.42
2023-01-29T00:06:53.997Z,70.41
2023-01-29T00:09:21.121Z,69.34
2023-01-29T00:11:47.944Z,68.50
2023-01-29T00:14:14.593Z,68.46
2023-01-29T00:16:41.279Z,68.54
2023-01-29T00:19:07.986Z,67.61
2023-01-29T00:21:34.970Z,69.01
2023-01-29T00:24:01.676Z,68.74
2023-01-29T00:26:28.361Z,67.57
2023-01-29T00:28:57.111Z,70.29
2023-01-29T00:31:24.710Z,70.39
2023-01-29T00:33:51.375Z,69.26
2023-01-29T00:36:19.256Z,70.31
2023-01-29T00:38:54.936Z,70.64
2023-01-29T00:41:41.595Z,71.18
2023-01-29T00:44:29.149Z,72.43
2023-01-29T00:46:55.721Z,72.20
2023-01-29T00:49:22.470Z,72.55
2023-01-29T00:52:08.728Z,72.41
2023-01-29T00:54:35.708Z,70.61
2023-01-29T00:57:03.329Z,70.67
2023-01-29T00:59:30.547Z,70.85
2023-01-29T01:02:15.850Z,70.19
2023-01-29T01:04:42.521Z,70.34
2023-01-29T01:07:09.166Z,68.27
2023-01-29T01:09:55.519Z,69.52
2023-01-29T01:12:22.176Z,68.68
2023-01-29T01:14:48.999Z,67.66
2023-01-29T01:17:15.796Z,68.88
2023-01-29T01:19:42.945Z,68.35
2023-01-29T01:22:09.648Z,68.28
2023-01-29T01:24:36.392Z,69.03
2023-01-29T01:27:03.010Z,71.19
2023-01-29T01:29:29.741Z,70.92
2023-01-29T01:31:57.588Z,72.90
2023-01-29T01:34:24.308Z,73.46
2023-01-29T01:36:50.860Z,74.10
2023-01-29T01:39:17.475Z,73.20
2023-01-29T01:41:44.056Z,72.08
2023-01-29T01:44:48.583Z,72.38
2023-01-29T01:47:16.121Z,74.53
2023-01-29T01:49:43.630Z,75.16
2023-01-29T01:52:10.576Z,75.58
2023-01-29T01:54:37.174Z,72.76
2023-01-29T01:57:15.811Z,73.70
2023-01-29T01:59:52.605Z,72.80
2023-01-29T02:02:38.444Z,74.23
2023-01-29T02:05:24.755Z,72.06
2023-01-29T02:08:10.285Z,72.45
2023-01-29T02:10:47.539Z,73.98
2023-01-29T02:13:18.603Z,73.16
2023-01-29T02:15:48.813Z,71.90
2023-01-29T02:18:17.734Z,69.72
2023-01-29T02:21:04.992Z,69.01
2023-01-29T02:23:37.591Z,70.52
2023-01-29T02:26:37.687Z,71.27
2023-01-29T02:29:26.819Z,71.62
2023-01-29T02:31:56.054Z,70.58
2023-01-29T02:34:28.747Z,69.04
2023-01-29T02:37:01.521Z,68.64
2023-01-29T02:39:37.491Z,67.88
2023-01-29T02:42:16.689Z,71.22
2023-01-29T02:44:48.970Z,70.58
2023-01-29T02:47:22.896Z,74.71
2023-01-29T02:50:00.344Z,74.49
2023-01-29T02:52:40.127Z,74.06
2023-01-29T02:55:13.738Z,75.41
2023-01-29T02:57:43.550Z,77.13
2023-01-29T03:00:28.064Z,75.90
2023-01-29T03:03:22.393Z,76.65
2023-01-29T03:06:07.796Z,78.06
2023-01-29T03:08:43.151Z,74.33
2023-01-29T03:11:15.138Z,75.88
2023-01-29T03:13:45.933Z,76.03
2023-01-29T03:16:20.536Z,76.21
2023-01-29T03:18:55.242Z,76.21
2023-01-29T03:21:48.533Z,75.48
2023-01-29T03:24:37.815Z,74.74
2023-01-29T03:27:27.652Z,73.72
2023-01-29T03:30:14.455Z,71.53
2023-01-29T03:32:53.211Z,70.64
2023-01-29T03:35:35.336Z,70.79
2023-01-29T03:38:07.495Z,69.70
2023-01-29T03:41:20.189Z,70.60
2023-01-29T03:43:50.072Z,72.50
2023-01-29T03:46:29.699Z,71.98
2023-01-29T03:49:22.095Z,72.90
2023-01-29T03:52:01.006Z,73.10
2023-01-29T03:54:33.396Z,72.86
2023-01-29T03:57:15.403Z,72.53
2023-01-29T03:59:55.047Z,73.19
2023-01-29T04:02:53.241Z,70.51
2023-01-29T04:05:23.166Z,69.08
2023-01-29T04:08:10.155Z,70.56
2023-01-29T04:10:38.282Z,71.47
2023-01-29T04:13:09.659Z,70.08
2023-01-29T04:15:45.980Z,71.61
2023-01-29T04:18:12.618Z,72.79
2023-01-29T04:20:58.341Z,74.07
2023-01-29T04:23:26.944Z,73.63
2023-01-29T04:26:16.500Z,74.15
2023-01-29T04:29:20.275Z,75.64
2023-01-29T04:32:01.079Z,75.51
2023-01-29T04:34:29.877Z,74.63
2023-01-29T04:37:07.620Z,72.62
2023-01-29T04:39:45.112Z,72.60
2023-01-29T04:42:49.912Z,70.31
2023-01-29T04:45:53.903Z,69.57
2023-01-29T04:48:25.653Z,71.55
2023-01-29T04:50:55.183Z,72.61
2023-01-29T04:53:26.804Z,72.63
2023-01-29T04:55:59.298Z,72.28
2023-01-29T04:58:34.128Z,71.13
2023-01-29T05:01:02.488Z,69.86
2023-01-29T05:03:29.939Z,69.73
2023-01-29T05:05:57.966Z,70.10
2023-01-29T05:08:25.759Z,71.28
2023-01-29T05:10:54.035Z,72.08
2023-01-29T05:13:22.176Z,71.35
2023-01-29T05:15:52.893Z,70.93
2023-01-29T05:18:19.621Z,69.38
2023-01-29T05:20:47.087Z,70.55
2023-01-29T05:23:21.357Z,69.29
2023-01-29T05:25:48.981Z,70.20
2023-01-29T05:28:18.481Z,69.87
2023-01-29T05:30:47.373Z,70.77
2023-01-29T05:33:16.357Z,70.83
2023-01-29T05:35:42.983Z,69.71
2023-01-29T05:38:10.012Z,69.14
2023-01-29T05:40:37.297Z,71.20
2023-01-29T05:43:05.785Z,73.43
2023-01-29T05:45:33.009Z,73.53
2023-01-29T05:48:00.153Z,74.55
2023-01-29T05:50:27.762Z,72.11
2023-01-29T05:53:01.922Z,72.99
2023-01-29T05:55:29.639Z,72.55
2023-01-29T05:57:56.305Z,70.87
2023-01-29T06:00:23.159Z,70.98
2023-01-29T06:02:49.953Z,69.76
2023-01-29T06:05:16.598Z,69.57
2023-01-29T06:07:45.347Z,68.84
2023-01-29T06:10:17.322Z,68.44
2023-01-29T06:12:44.295Z,71.16
2023-01-29T06:15:12.344Z,70.81
2023-01-29T06:17:38.935Z,72.17
2023-01-29T06:20:06.172Z,71.04
2023-01-29T06:22:33.104Z,70.19
2023-01-29T06:24:59.695Z,71.42
2023-01-29T06:27:26.327Z,71.83
2023-01-29T06:29:52.891Z,71.04
2023-01-29T06:32:19.549Z,70.26
2023-01-29T06:34:48.652Z,71.89
2023-01-29T06:37:16.228Z,70.40
2023-01-29T06:39:42.826Z,69.99
2023-01-29T06:42:10.037Z,69.64
2023-01-29T06:44:36.944Z,69.56
2023-01-29T06:47:03.613Z,69.87
2023-01-29T06:49:30.229Z,72.47
2023-01-29T06:51:57.189Z,71.62
2023-01-29T06:54:23.828Z,72.08
2023-01-29T06:56:50.414Z,72.07
2023-01-29T06:59:17.002Z,72.03
2023-01-29T07:01:44.416Z,71.05
2023-01-29T07:04:11.596Z,72.32
2023-01-29T07:06:38.300Z,71.34
2023-01-29T07:09:05.055Z,71.65
2023-01-29T07:11:32.008Z,71.96
2023-01-29T07:13:58.630Z,72.44
2023-01-29T07:16:26.307Z,73.30
2023-01-29T07:18:53.252Z,74.09
2023-01-29T07:21:19.954Z,72.64
2023-01-29T07:23:46.554Z,74.26
2023-01-29T07:26:13.213Z,72.22
2023-01-29T07:28:40.641Z,72.23
2023-01-29T07:31:08.186Z,72.29
2023-01-29T07:33:34.975Z,70.88
2023-01-29T07:36:01.758Z,72.63
2023-01-29T07:38:28.354Z,71.45
2023-01-29T07:40:54.986Z,70.22
2023-01-29T07:43:21.577Z,69.68
2023-01-29T07:45:48.196Z,69.21
2023-01-29T07:48:14.800Z,67.44
2023-01-29T07:50:41.787Z,69.86
2023-01-29T07:53:13.019Z,70.40
2023-01-29T07:55:39.602Z,71.22
2023-01-29T07:58:06.484Z,69.75
2023-01-29T08:00:33.104Z,70.07
2023-01-29T08:03:07.905Z,69.79
2023-01-29T08:05:34.698Z,68.85
2023-01-29T08:08:06.954Z,69.70
2023-01-29T08:10:38.456Z,69.45
2023-01-29T08:13:06.359Z,68.23
2023-01-29T08:15:33.540Z,68.77
2023-01-29T08:18:02.223Z,69.12
2023-01-29T08:20:29.173Z,69.73
2023-01-29T08:23:01.167Z,68.82
2023-01-29T08:25:28.376Z,69.24
2023-01-29T08:27:57.083Z,69.44
2023-01-29T08:30:24.849Z,68.08
2023-01-29T08:32:51.490Z,70.49
2023-01-29T08:35:18.346Z,69.96
2023-01-29T08:37:45.110Z,70.58
2023-01-29T08:40:13.370Z,71.69
2023-01-29T08:42:41.544Z,71.55
2023-01-29T08:45:08.884Z,70.68
2023-01-29T08:47:35.562Z,69.26
2023-01-29T08:50:02.537Z,70.15
2023-01-29T08:52:29.142Z,68.90
2023-01-29T08:54:55.693Z,69.34
2023-01-29T08:57:22.297Z,70.04
2023-01-29T08:59:48.875Z,69.99
2023-01-29T09:02:15.576Z,71.04
2023-01-29T09:04:42.232Z,70.40
2023-01-29T09:07:09.371Z,70.91
2023-01-29T09:09:36.130Z,70.45
2023-01-29T09:12:03.831Z,69.86
2023-01-29T09:14:30.862Z,71.28
2023-01-29T09:16:57.532Z,70.96
2023-01-29T09:19:24.204Z,69.51
2023-01-29T09:21:50.758Z,71.51
2023-01-29T09:24:17.853Z,70.74
2023-01-29T09:26:44.461Z,70.05
2023-01-29T09:29:11.648Z,69.14
2023-01-29T09:31:38.296Z,68.73
2023-01-29T09:34:04.927Z,69.33
2023-01-29T09:36:31.552Z,70.94
2023-01-29T09:38:58.150Z,70.22
2023-01-29T09:41:32.563Z,69.92
2023-01-29T09:44:02.732Z,68.91
2023-01-29T09:46:40.206Z,68.70
2023-01-29T09:49:15.232Z,68.57
2023-01-29T09:51:44.657Z,68.37
2023-01-29T09:54:36.189Z,68.98
2023-01-29T09:57:02.770Z,67.77
2023-01-29T09:59:31.377Z,68.73
2023-01-29T10:02:22.947Z,68.00
2023-01-29T10:05:11.116Z,68.27
2023-01-29T10:07:57.788Z,68.70
2023-01-29T10:10:33.392Z,67.01
2023-01-29T10:13:12.098Z,68.55
2023-01-29T10:15:50.935Z,67.96
2023-01-29T10:18:48.615Z,66.64
2023-01-29T10:21:51.108Z,68.37
2023-01-29T10:24:38.384Z,67.68
2023-01-29T10:27:15.152Z,67.11
2023-01-29T10:29:43.534Z,68.22
2023-01-29T10:32:16.790Z,68.83
2023-01-29T10:34:52.543Z,67.74
2023-01-29T10:37:24.320Z,67.63
2023-01-29T10:39:51.112Z,67.59
2023-01-29T10:42:50.297Z,66.84
2023-01-29T10:45:35.467Z,66.47
2023-01-29T10:48:45.213Z,66.79
2023-01-29T10:51:42.794Z,67.24
2023-01-29T10:54:41.318Z,67.27
2023-01-29T10:57:46.399Z,67.33
2023-01-29T11:00:27.374Z,66.29
2023-01-29T11:02:54.085Z,66.12
2023-01-29T11:05:32.129Z,67.04
2023-01-29T11:08:07.274Z,67.50
2023-01-29T11:10:40.328Z,67.60
2023-01-29T11:13:12.600Z,67.96
2023-01-29T11:15:39.700Z,67.04
2023-01-29T11:18:14.160Z,68.10
2023-01-29T11:20:42.758Z,67.47
2023-01-29T11:23:30.934Z,67.33
2023-01-29T11:25:59.086Z,72.51
2023-01-29T11:28:42.721Z,69.41
2023-01-29T11:31:29.461Z,67.22
2023-01-29T11:34:07.784Z,68.02
2023-01-29T11:36:39.474Z,67.93
2023-01-29T11:39:15.771Z,68.28
2023-01-29T11:41:44.738Z,69.13
2023-01-29T11:44:33.410Z,68.35
2023-01-29T11:47:21.708Z,68.70
2023-01-29T11:49:54.275Z,68.66
2023-01-29T11:52:24.197Z,68.90
2023-01-29T11:55:04.157Z,68.54
2023-01-29T11:57:34.649Z,68.44
2023-01-29T12:00:07.736Z,68.60
2023-01-29T12:02:47.952Z,69.22
2023-01-29T12:05:20.194Z,68.58
2023-01-29T12:07:50.559Z,68.90
2023-01-29T12:10:36.572Z,68.46
2023-01-29T12:13:09.300Z,68.02
2023-01-29T12:15:40.325Z,67.81
2023-01-29T12:18:32.193Z,67.14
2023-01-29T12:21:04.966Z,66.91
2023-01-29T12:24:29.299Z,66.75
2023-01-29T12:27:02.801Z,67.65
2023-01-29T12:29:36.061Z,67.59
2023-01-29T12:32:23.700Z,69.31
2023-01-29T12:34:56.581Z,67.90
2023-01-29T12:37:28.946Z,68.11
2023-01-29T12:39:55.763Z,68.86
2023-01-29T12:42:25.628Z,68.49
2023-01-29T12:44:56.065Z,68.44
2023-01-29T12:47:25.956Z,67.29
2023-01-29T12:49:56.060Z,67.42
2023-01-29T12:52:30.583Z,67.58
2023-01-29T12:55:03.377Z,66.95
2023-01-29T12:57:36.202Z,66.39
2023-01-29T13:00:08.204Z,66.00
2023-01-29T13:02:52.530Z,66.33
2023-01-29T13:05:26.327Z,67.06
2023-01-29T13:08:14.375Z,65.61
2023-01-29T13:10:43.788Z,66.24
2023-01-29T13:13:33.326Z,66.09
2023-01-29T13:16:01.155Z,66.03
2023-01-29T13:18:42.119Z,65.53
2023-01-29T13:21:15.493Z,65.79
2023-01-29T13:23:46.978Z,67.11
2023-01-29T13:26:17.968Z,66.69
2023-01-29T13:28:45.214Z,66.58
2023-01-29T13:31:24.279Z,65.94
2023-01-29T13:34:14.173Z,65.81
2023-01-29T13:36:46.707Z,66.37
2023-01-29T13:39:33.902Z,65.49
2023-01-29T13:42:01.474Z,65.40
2023-01-29T13:44:39.020Z,64.91
2023-01-29T13:47:07.999Z,65.56
2023-01-29T13:49:37.580Z,66.19
2023-01-29T13:52:23.982Z,65.99
2023-01-29T13:55:13.850Z,66.87
2023-01-29T13:57:46.915Z,66.34
2023-01-29T14:00:22.615Z,66.78
2023-01-29T14:02:54.956Z,67.02
2023-01-29T14:05:30.971Z,66.70
2023-01-29T14:08:08.643Z,66.00
2023-01-29T14:10:36.995Z,66.51
2023-01-29T14:13:03.508Z,67.44
2023-01-29T14:15:40.165Z,66.67
2023-01-29T14:18:22.358Z,67.63
2023-01-29T14:20:48.951Z,66.85
2023-01-29T14:23:41.239Z,67.01
2023-01-29T14:26:28.873Z,67.40
2023-01-29T14:29:00.751Z,68.04
2023-01-29T14:31:36.923Z,67.90
2023-01-29T14:34:06.524Z,66.99
2023-01-29T14:36:41.175Z,67.83
2023-01-29T14:39:20.433Z,66.84
2023-01-29T14:41:47.614Z,67.31
2023-01-29T14:44:45.492Z,68.27
2023-01-29T14:47:25.493Z,68.48
2023-01-29T14:49:59.740Z,68.06
2023-01-29T14:52:40.424Z,68.48
2023-01-29T14:55:13.447Z,67.17
2023-01-29T14:57:40.021Z,66.66
2023-01-29T15:00:15.471Z,68.27
2023-01-29T15:02:44.300Z,67.77
2023-01-29T15:05:15.076Z,68.03
2023-01-29T15:07:49.163Z,67.72
2023-01-29T15:10:31.492Z,67.87
2023-01-29T15:13:46.289Z,68.21
2023-01-29T15:16:35.629Z,67.94
2023-01-29T15:19:33.496Z,69.04
2023-01-29T15:22:16.857Z,67.95
2023-01-29T15:24:44.805Z,67.65
2023-01-29T15:27:15.769Z,68.34
2023-01-29T15:29:44.830Z,67.04
2023-01-29T15:32:17.269Z,67.53
2023-01-29T15:34:44.259Z,67.60
2023-01-29T15:37:33.993Z,67.03
2023-01-29T15:40:01.660Z,67.54
2023-01-29T15:42:29.650Z,67.37
2023-01-29T15:44:56.356Z,67.28
2023-01-29T15:47:30.352Z,67.96
2023-01-29T15:49:57.409Z,66.59
2023-01-29T15:52:28.089Z,66.31
2023-01-29T15:54:56.639Z,65.97
2023-01-29T15:57:32.997Z,65.41
2023-01-29T16:00:00.205Z,67.19
2023-01-29T16:02:39.260Z,67.31
2023-01-29T16:05:12.911Z,67.67
2023-01-29T16:07:40.632Z,67.31
2023-01-29T16:10:11.616Z,67.37
2023-01-29T16:12:39.356Z,67.80
2023-01-29T16:15:06.751Z,67.61
2023-01-29T16:17:36.814Z,67.33
2023-01-29T16:20:07.893Z,66.57
2023-01-29T16:22:36.261Z,66.84
2023-01-29T16:25:05.711Z,67.30
2023-01-29T16:27:32.939Z,67.85
2023-01-29T16:30:02.057Z,67.73
2023-01-29T16:32:30.004Z,68.87
2023-01-29T16:34:58.874Z,67.35
2023-01-29T16:37:30.843Z,67.01
2023-01-29T16:39:57.972Z,67.66
2023-01-29T16:42:29.520Z,66.57
2023-01-29T16:45:07.371Z,67.56
2023-01-29T16:47:33.933Z,67.38
2023-01-29T16:50:22.360Z,67.92
2023-01-29T16:53:00.265Z,68.29
2023-01-29T16:55:33.042Z,67.45
2023-01-29T16:58:03.740Z,66.82
2023-01-29T17:00:31.295Z,67.30
2023-01-29T17:03:04.976Z,68.10
2023-01-29T17:05:34.068Z,67.38
2023-01-29T17:08:00.947Z,66.23
2023-01-29T17:10:28.843Z,67.26
2023-01-29T17:13:06.332Z,67.54
2023-01-29T17:15:43.043Z,67.82
2023-01-29T17:18:19.196Z,66.48
2023-01-29T17:20:46.132Z,66.27
2023-01-29T17:23:12.926Z,70.53
2023-01-29T17:25:40.399Z,69.56
2023-01-29T17:28:07.899Z,69.72
2023-01-29T17:30:37.146Z,70.01
2023-01-29T17:33:18.115Z,68.65
2023-01-29T17:35:45.612Z,67.21
2023-01-29T17:38:24.286Z,67.89
2023-01-29T17:40:58.902Z,66.70
2023-01-29T17:43:25.510Z,66.20
2023-01-29T17:45:52.227Z,67.23
2023-01-29T17:48:27.054Z,67.01
2023-01-29T17:50:56.345Z,67.78
2023-01-29T17:53:24.869Z,68.86
2023-01-29T17:55:53.290Z,67.68
2023-01-29T17:58:27.414Z,67.86
2023-01-29T18:00:54.969Z,67.47
2023-01-29T18:03:22.909Z,67.67
2023-01-29T18:05:50.331Z,67.02
2023-01-29T18:08:28.781Z,66.81
2023-01-29T18:10:55.517Z,68.13
2023-01-29T18:13:22.184Z,67.65
2023-01-29T18:15:49.689Z,68.21
2023-01-29T18:18:20.054Z,68.33
2023-01-29T18:20:46.866Z,67.89
2023-01-29T18:23:13.585Z,68.33
2023-01-29T18:25:40.333Z,68.48
2023-01-29T18:28:07.592Z,67.20
2023-01-29T18:30:34.276Z,67.42
2023-01-29T18:33:01.240Z,69.11
2023-01-29T18:35:28.285Z,68.45
2023-01-29T18:37:55.056Z,68.05
2023-01-29T18:40:21.766Z,67.91
2023-01-29T18:42:48.773Z,68.83
2023-01-29T18:45:16.624Z,68.76
2023-01-29T18:47:46.188Z,68.01
2023-01-29T18:50:13.265Z,67.99
2023-01-29T18:52:40.844Z,68.35
2023-01-29T18:55:09.730Z,69.34
2023-01-29T18:58:29.217Z,69.30
2023-01-29T19:00:24.925Z,68.61
2023-01-29T19:02:51.506Z,68.57
2023-01-29T19:05:21.419Z,68.38
2023-01-29T19:07:48.216Z,68.83
2023-01-29T19:10:17.006Z,69.14
2023-01-29T19:12:43.985Z,69.61
2023-01-29T19:15:11.681Z,68.58
2023-01-29T19:17:38.866Z,69.18
2023-01-29T19:20:05.810Z,69.71
2023-01-29T19:22:32.457Z,69.21
2023-01-29T19:24:59.211Z,69.20
2023-01-29T19:27:30.371Z,68.47
2023-01-29T19:30:00.094Z,68.31
2023-01-29T19:32:28.784Z,68.32
2023-01-29T19:34:55.842Z,68.33
2023-01-29T19:37:22.685Z,68.41
2023-01-29T19:39:49.307Z,67.69
2023-01-29T19:42:16.314Z,67.57
2023-01-29T19:44:44.689Z,67.58
2023-01-29T19:47:11.318Z,68.52
2023-01-29T19:49:38.029Z,68.42
2023-01-29T19:52:05.979Z,69.50
2023-01-29T19:54:32.845Z,68.91
2023-01-29T19:56:59.601Z,68.10
2023-01-29T19:59:26.213Z,69.00
2023-01-29T20:01:52.949Z,69.69
2023-01-29T20:04:19.779Z,70.27
2023-01-29T20:06:46.856Z,69.08
2023-01-29T20:09:13.439Z,71.52
2023-01-29T20:11:40.116Z,71.08
2023-01-29T20:14:06.744Z,71.54
2023-01-29T20:16:33.498Z,72.78
2023-01-29T20:19:13.934Z,73.99
2023-01-29T20:21:42.222Z,72.47
2023-01-29T20:24:12.525Z,73.38
2023-01-29T20:26:39.674Z,73.60
2023-01-29T20:29:06.556Z,72.95
2023-01-29T20:31:33.579Z,72.41
2023-01-29T20:34:00.342Z,73.40
2023-01-29T20:36:27.484Z,73.60
2023-01-29T20:38:54.099Z,73.79
2023-01-29T20:41:21.898Z,72.49
2023-01-29T20:43:50.494Z,73.01
2023-01-29T20:46:18.191Z,72.31
2023-01-29T20:48:44.966Z,72.49
2023-01-29T20:51:15.516Z,73.85
2023-01-29T20:53:45.041Z,73.05
2023-01-29T20:56:12.419Z,73.04
2023-01-29T20:58:40.826Z,72.81
2023-01-29T21:01:11.834Z,73.54
2023-01-29T21:03:39.466Z,73.67
2023-01-29T21:06:07.256Z,74.44
2023-01-29T21:08:35.288Z,74.65
2023-01-29T21:11:02.888Z,73.29
2023-01-29T21:13:29.583Z,73.65
2023-01-29T21:15:56.493Z,73.04
2023-01-29T21:18:26.585Z,73.72
2023-01-29T21:20:54.454Z,73.84
2023-01-29T21:23:22.012Z,75.06
2023-01-29T21:25:48.681Z,73.91
2023-01-29T21:28:15.906Z,74.83
2023-01-29T21:30:42.854Z,74.61
2023-01-29T21:33:09.630Z,74.92
2023-01-29T21:35:37.815Z,74.45
2023-01-29T21:38:04.760Z,75.15
2023-01-29T21:40:31.542Z,74.67
2023-01-29T21:43:15.422Z,74.97
2023-01-29T21:45:42.739Z,75.42
2023-01-29T21:48:11.178Z,75.36
2023-01-29T21:50:38.684Z,76.71
2023-01-29T21:53:05.399Z,79.42
2023-01-29T21:55:32.938Z,76.82
2023-01-29T21:58:00.346Z,78.49
2023-01-29T22:00:27.397Z,79.97
2023-01-29T22:02:54.178Z,78.64
2023-01-29T22:05:20.931Z,81.15
2023-01-29T22:07:48.648Z,80.19
2023-01-29T22:10:17.622Z,80.07
2023-01-29T22:12:44.874Z,76.88
2023-01-29T22:15:12.308Z,77.37
2023-01-29T22:17:41.251Z,78.34
2023-01-29T22:20:12.346Z,77.42
2023-01-29T22:22:39.148Z,78.26
2023-01-29T22:25:06.090Z,77.02
2023-01-29T22:27:33.903Z,77.25
2023-01-29T22:30:00.764Z,78.60
2023-01-29T22:32:27.679Z,79.28
2023-01-29T22:34:54.465Z,79.63
2023-01-29T22:37:21.607Z,78.45
2023-01-29T22:39:48.226Z,78.95
2023-01-29T22:42:14.906Z,78.64
2023-01-29T22:44:42.637Z,79.09
2023-01-29T22:47:09.284Z,78.80
2023-01-29T22:49:35.839Z,79.14
2023-01-29T22:52:11.396Z,78.76
2023-01-29T22:54:41.588Z,79.64
2023-01-29T22:57:12.433Z,78.20
2023-01-29T22:59:39.359Z,78.45
2023-01-29T23:02:07.060Z,78.37
2023-01-29T23:04:33.741Z,80.12
2023-01-29T23:07:00.356Z,79.99
2023-01-29T23:09:27.077Z,79.45
2023-01-29T23:11:53.736Z,78.96
2023-01-29T23:14:20.373Z,78.88
2023-01-29T23:16:46.966Z,79.22
2023-01-29T23:19:13.634Z,79.97
2023-01-29T23:21:40.225Z,80.25
2023-01-29T23:24:08.125Z,80.69
2023-01-29T23:26:53.574Z,81.64
2023-01-29T23:29:20.613Z,81.27
2023-01-29T23:31:47.375Z,80.97
2023-01-29T23:34:15.045Z,80.62
2023-01-29T23:36:42.317Z,79.70
2023-01-29T23:39:09.329Z,80.30
2023-01-29T23:41:36.437Z,80.49
2023-01-29T23:44:03.529Z,79.62
2023-01-29T23:46:30.322Z,80.14
2023-01-29T23:48:56.970Z,81.23
2023-01-29T23:51:23.751Z,80.11
2023-01-29T23:53:50.867Z,81.56
2023-01-29T23:56:17.800Z,82.44
2023-01-29T23:58:44.864Z,81.79
